createdAt,value
2023-01-19T00:01:29.416Z,99369.84
2023-01-19T00:03:58.066Z,99379.13
2023-01-19T00:06:26.305Z,99370.84
2023-01-19T00:08:54.462Z,99375.94
2023-01-19T00:11:22.402Z,99376.16
2023-01-19T00:13:51.077Z,99361.16
2023-01-19T00:16:23.274Z,99359.53
2023-01-19T00:18:52.800Z,99370.81
2023-01-19T00:21:22.481Z,99376.19
2023-01-19T00:23:52.622Z,99378.06
2023-01-19T00:26:23.104Z,99376.00
2023-01-19T00:28:51.267Z,99380.41
2023-01-19T00:31:21.805Z,99378.16
2023-01-19T00:33:52.722Z,99379.19
2023-01-19T00:36:21.125Z,99374.44
2023-01-19T00:38:49.158Z,99377.81
2023-01-19T00:41:17.595Z,99378.28
2023-01-19T00:43:44.764Z,99381.16
2023-01-19T00:46:12.845Z,99372.59
2023-01-19T00:48:42.143Z,99377.50
2023-01-19T00:51:10.185Z,99375.66
2023-01-19T00:53:38.062Z,99373.81
2023-01-19T00:56:06.657Z,99366.72
2023-01-19T00:58:34.614Z,99366.91
2023-01-19T01:01:04.807Z,99370.63
2023-01-19T01:03:33.608Z,99375.16
2023-01-19T01:06:03.723Z,99377.88
2023-01-19T01:08:32.003Z,99383.44
2023-01-19T01:11:00.013Z,99383.59
2023-01-19T01:13:29.325Z,99381.75
2023-01-19T01:15:58.009Z,99393.59
2023-01-19T01:18:26.293Z,99385.50
2023-01-19T01:20:56.239Z,99387.50
2023-01-19T01:23:25.851Z,99405.38
2023-01-19T01:25:53.854Z,99404.53
2023-01-19T01:28:21.855Z,99403.69
2023-01-19T01:30:53.880Z,99404.53
2023-01-19T01:33:39.777Z,99402.03
2023-01-19T01:36:09.267Z,99392.59
2023-01-19T01:38:38.737Z,99394.84
2023-01-19T01:41:07.069Z,99400.59
2023-01-19T01:43:46.817Z,99405.97
2023-01-19T01:46:17.291Z,99402.97
2023-01-19T01:48:52.448Z,99405.84
2023-01-19T01:51:26.517Z,99412.09
2023-01-19T01:54:09.570Z,99405.22
2023-01-19T01:56:39.947Z,99401.06
2023-01-19T01:59:10.718Z,99397.75
2023-01-19T02:01:56.232Z,99395.91
2023-01-19T02:04:25.170Z,99395.56
2023-01-19T02:07:11.051Z,99394.16
2023-01-19T02:09:57.603Z,99393.66
2023-01-19T02:12:43.771Z,99393.34
2023-01-19T02:15:17.469Z,99392.31
2023-01-19T02:17:45.636Z,99393.34
2023-01-19T02:20:14.276Z,99390.97
2023-01-19T02:22:48.782Z,99389.47
2023-01-19T02:25:20.212Z,99387.44
2023-01-19T02:27:50.296Z,99381.38
2023-01-19T02:30:19.205Z,99390.47
2023-01-19T02:32:47.333Z,99396.88
2023-01-19T02:35:15.706Z,99396.06
2023-01-19T02:37:45.673Z,99402.94
2023-01-19T02:40:16.542Z,99399.41
2023-01-19T02:42:50.066Z,99405.25
2023-01-19T02:45:22.929Z,99404.91
2023-01-19T02:47:52.589Z,99409.84
2023-01-19T02:50:41.451Z,99402.94
2023-01-19T02:53:34.165Z,99400.72
2023-01-19T02:56:14.074Z,99398.69
2023-01-19T02:58:49.229Z,99400.03
2023-01-19T03:01:26.203Z,99394.44
2023-01-19T03:04:00.770Z,99396.78
2023-01-19T03:06:37.882Z,99406.38
2023-01-19T03:09:13.218Z,99405.38
2023-01-19T03:11:47.795Z,99412.44
2023-01-19T03:14:23.467Z,99417.66
2023-01-19T03:16:55.213Z,99420.19
2023-01-19T03:19:27.145Z,99421.22
2023-01-19T03:21:59.034Z,99424.72
2023-01-19T03:24:31.525Z,99426.44
2023-01-19T03:27:04.079Z,99427.94
2023-01-19T03:29:36.116Z,99435.19
2023-01-19T03:32:09.139Z,99440.59
2023-01-19T03:34:39.440Z,99443.28
2023-01-19T03:37:11.439Z,99442.44
2023-01-19T03:39:39.438Z,99443.47
2023-01-19T03:42:11.680Z,99445.97
2023-01-19T03:44:43.195Z,99446.31
2023-01-19T03:47:12.858Z,99450.03
2023-01-19T03:49:45.102Z,99445.47
2023-01-19T03:52:14.222Z,99455.78
2023-01-19T03:54:42.153Z,99447.88
2023-01-19T03:57:10.323Z,99446.19
2023-01-19T03:59:38.204Z,99448.69
2023-01-19T04:02:07.607Z,99444.13
2023-01-19T04:04:35.499Z,99445.53
2023-01-19T04:07:03.447Z,99449.88
2023-01-19T04:09:31.395Z,99446.84
2023-01-19T04:12:01.592Z,99437.91
2023-01-19T04:14:29.625Z,99452.06
2023-01-19T04:16:57.632Z,99450.19
2023-01-19T04:19:27.075Z,99454.59
2023-01-19T04:21:55.699Z,99450.72
2023-01-19T04:24:23.692Z,99454.38
2023-01-19T04:26:53.413Z,99452.41
2023-01-19T04:29:21.389Z,99453.56
2023-01-19T04:31:49.330Z,99460.50
2023-01-19T04:34:17.617Z,99465.06
2023-01-19T04:36:46.970Z,99467.75
2023-01-19T04:39:15.345Z,99467.75
2023-01-19T04:41:43.477Z,99469.59
2023-01-19T04:44:11.540Z,99464.22
2023-01-19T04:46:39.554Z,99468.72
2023-01-19T04:49:07.575Z,99469.59
2023-01-19T04:51:35.757Z,99468.59
2023-01-19T04:54:05.286Z,99466.72
2023-01-19T04:56:33.217Z,99472.31
2023-01-19T04:59:01.238Z,99482.41
2023-01-19T05:01:29.415Z,99473.81
2023-01-19T05:04:00.932Z,99481.75
2023-01-19T05:06:28.897Z,99478.72
2023-01-19T05:08:56.825Z,99478.88
2023-01-19T05:11:26.365Z,99477.19
2023-01-19T05:13:54.463Z,99474.03
2023-01-19T05:16:22.442Z,99480.59
2023-01-19T05:18:50.589Z,99482.47
2023-01-19T05:21:18.511Z,99482.47
2023-01-19T05:23:46.504Z,99487.00
2023-01-19T05:26:14.594Z,99480.09
2023-01-19T05:28:43.940Z,99492.06
2023-01-19T05:31:11.990Z,99494.47
2023-01-19T05:33:40.012Z,99492.94
2023-01-19T05:36:08.451Z,99501.03
2023-01-19T05:38:36.495Z,99494.63
2023-01-19T05:41:04.742Z,99480.34
2023-01-19T05:43:32.751Z,99486.03
2023-01-19T05:46:02.176Z,99491.22
2023-01-19T05:48:30.083Z,99491.22
2023-01-19T05:51:01.383Z,99494.63
2023-01-19T05:53:30.007Z,99503.72
2023-01-19T05:56:01.355Z,99498.97
2023-01-19T05:58:29.873Z,99495.97
2023-01-19T06:00:58.228Z,99506.75
2023-01-19T06:03:27.701Z,99506.75
2023-01-19T06:05:58.793Z,99508.44
2023-01-19T06:08:27.074Z,99516.69
2023-01-19T06:10:55.033Z,99522.91
2023-01-19T06:13:22.960Z,99520.22
2023-01-19T06:15:56.922Z,99520.22
2023-01-19T06:18:24.947Z,99522.78
2023-01-19T06:20:58.895Z,99518.91
2023-01-19T06:23:26.965Z,99536.06
2023-01-19T06:25:54.986Z,99532.00
2023-01-19T06:28:23.209Z,99536.75
2023-01-19T06:30:52.041Z,99542.13
2023-01-19T06:33:20.715Z,99550.22
2023-01-19T06:35:50.764Z,99549.38
2023-01-19T06:38:20.235Z,99561.00
2023-01-19T06:40:53.848Z,99556.47
2023-01-19T06:43:22.138Z,99562.19
2023-01-19T06:45:50.248Z,99567.59
2023-01-19T06:48:19.032Z,99561.72
2023-01-19T06:50:47.640Z,99573.31
2023-01-19T06:53:16.691Z,99573.31
2023-01-19T06:55:46.054Z,99574.16
2023-01-19T06:58:14.193Z,99580.22
2023-01-19T07:00:43.005Z,99580.41
2023-01-19T07:03:20.660Z,99581.41
2023-01-19T07:05:51.962Z,99593.03
2023-01-19T07:08:20.076Z,99585.97
2023-01-19T07:11:25.880Z,99596.38
2023-01-19T07:13:39.406Z,99601.13
2023-01-19T07:16:09.063Z,99612.75
2023-01-19T07:18:37.225Z,99612.75
2023-01-19T07:21:05.842Z,99612.56
2023-01-19T07:23:34.875Z,99620.31
2023-01-19T07:26:04.470Z,99615.97
2023-01-19T07:28:33.015Z,99629.44
2023-01-19T07:31:01.192Z,99622.16
2023-01-19T07:33:29.877Z,99630.09
2023-01-19T07:35:57.864Z,99633.81
2023-01-19T07:38:25.857Z,99640.22
2023-01-19T07:40:53.797Z,99641.88
2023-01-19T07:43:23.212Z,99642.91
2023-01-19T07:45:51.893Z,99648.13
2023-01-19T07:48:19.880Z,99660.59
2023-01-19T07:50:47.882Z,99658.72
2023-01-19T07:53:16.806Z,99659.56
2023-01-19T07:55:44.786Z,99660.09
2023-01-19T07:58:12.858Z,99666.81
2023-01-19T08:00:42.215Z,99676.78
2023-01-19T08:03:11.215Z,99674.09
2023-01-19T08:05:39.643Z,99684.69
2023-01-19T08:08:07.694Z,99680.31
2023-01-19T08:10:35.705Z,99686.38
2023-01-19T08:13:04.059Z,99689.41
2023-01-19T08:15:32.087Z,99696.16
2023-01-19T08:18:05.602Z,99694.47
2023-01-19T08:20:33.763Z,99698.84
2023-01-19T08:23:03.089Z,99698.34
2023-01-19T08:25:34.696Z,99698.19
2023-01-19T08:28:03.327Z,99700.53
2023-01-19T08:30:31.404Z,99699.88
2023-01-19T08:33:04.212Z,99701.88
2023-01-19T08:35:35.014Z,99702.22
2023-01-19T08:38:02.933Z,99703.91
2023-01-19T08:40:31.260Z,99711.00
2023-01-19T08:43:03.749Z,99708.78
2023-01-19T08:45:32.405Z,99720.09
2023-01-19T08:48:00.341Z,99727.66
2023-01-19T08:50:28.357Z,99723.44
2023-01-19T08:52:59.485Z,99724.81
2023-01-19T08:55:28.373Z,99729.34
2023-01-19T08:58:00.160Z,99730.03
2023-01-19T09:00:31.615Z,99731.88
2023-01-19T09:02:59.915Z,99731.22
2023-01-19T09:05:28.229Z,99737.59
2023-01-19T09:07:56.141Z,99741.50
2023-01-19T09:10:25.541Z,99734.59
2023-01-19T09:12:53.537Z,99738.47
2023-01-19T09:15:21.565Z,99740.84
2023-01-19T09:17:49.522Z,99743.53
2023-01-19T09:20:17.479Z,99745.19
2023-01-19T09:22:47.585Z,99751.13
2023-01-19T09:25:15.693Z,99749.25
2023-01-19T09:27:44.938Z,99754.97
2023-01-19T09:30:14.125Z,99755.31
2023-01-19T09:32:42.916Z,99760.22
2023-01-19T09:35:11.108Z,99760.91
2023-01-19T09:37:39.110Z,99763.59
2023-01-19T09:40:09.982Z,99769.00
2023-01-19T09:42:43.644Z,99774.06
2023-01-19T09:45:20.089Z,99748.94
2023-01-19T09:47:50.780Z,99778.28
2023-01-19T09:50:24.930Z,99786.19
2023-01-19T09:53:01.381Z,99791.25
2023-01-19T09:55:29.769Z,99797.66
2023-01-19T09:57:58.133Z,99803.91
2023-01-19T10:00:31.580Z,99794.44
2023-01-19T10:03:10.666Z,99797.97
2023-01-19T10:05:45.954Z,99802.03
2023-01-19T10:08:21.598Z,99794.94
2023-01-19T10:10:54.034Z,99792.25
2023-01-19T10:13:34.536Z,99794.94
2023-01-19T10:16:14.377Z,99800.53
2023-01-19T10:18:47.590Z,99805.75
2023-01-19T10:21:22.387Z,99805.59
2023-01-19T10:23:53.286Z,99807.25
2023-01-19T10:26:25.756Z,99811.00
2023-01-19T10:28:57.505Z,99808.94
2023-01-19T10:31:27.192Z,99818.06
2023-01-19T10:33:55.352Z,99794.63
2023-01-19T10:36:31.122Z,99816.19
2023-01-19T10:38:59.337Z,99824.50
2023-01-19T10:41:32.886Z,99821.78
2023-01-19T10:44:02.586Z,99830.03
2023-01-19T10:46:38.591Z,99830.69
2023-01-19T10:49:07.487Z,99829.38
2023-01-19T10:51:35.715Z,99836.44
2023-01-19T10:54:05.579Z,99845.22
2023-01-19T10:56:36.579Z,99831.41
2023-01-19T10:59:06.620Z,99846.22
2023-01-19T11:01:38.118Z,99845.22
2023-01-19T11:04:28.260Z,99845.91
2023-01-19T11:07:14.052Z,99842.84
2023-01-19T11:09:42.125Z,99841.16
2023-01-19T11:12:18.579Z,99842.56
2023-01-19T11:14:48.105Z,99844.38
2023-01-19T11:17:23.528Z,99841.53
2023-01-19T11:19:57.487Z,99852.47
2023-01-19T11:22:29.319Z,99846.03
2023-01-19T11:25:02.288Z,99857.69
2023-01-19T11:27:32.469Z,99852.34
2023-01-19T11:30:09.802Z,99853.34
2023-01-19T11:32:39.349Z,99858.06
2023-01-19T11:35:39.629Z,99858.06
2023-01-19T11:38:15.280Z,99863.78
2023-01-19T11:40:48.381Z,99873.38
2023-01-19T11:43:16.539Z,99875.53
2023-01-19T11:45:46.225Z,99883.16
2023-01-19T11:48:28.453Z,99889.00
2023-01-19T11:50:58.327Z,99883.75
2023-01-19T11:53:29.217Z,99886.41
2023-01-19T11:56:00.714Z,99885.56
2023-01-19T11:58:28.782Z,99889.63
2023-01-19T12:01:01.765Z,99889.13
2023-01-19T12:03:34.017Z,99897.06
2023-01-19T12:06:08.035Z,99894.38
2023-01-19T12:08:38.567Z,99897.78
2023-01-19T12:11:09.938Z,99903.72
2023-01-19T12:13:38.609Z,99900.69
2023-01-19T12:16:11.677Z,99909.13
2023-01-19T12:18:45.829Z,99916.38
2023-01-19T12:21:14.059Z,99922.28
2023-01-19T12:23:49.385Z,99914.38
2023-01-19T12:26:37.760Z,99924.63
2023-01-19T12:29:13.778Z,99926.66
2023-01-19T12:31:42.987Z,99927.28
2023-01-19T12:34:41.610Z,99920.00
2023-01-19T12:37:34.638Z,99897.06
2023-01-19T12:40:06.653Z,99906.81
2023-01-19T12:42:35.176Z,99929.63
2023-01-19T12:45:09.162Z,99936.72
2023-01-19T12:47:38.326Z,99935.34
2023-01-19T12:50:15.027Z,99934.00
2023-01-19T12:52:51.548Z,99937.84
2023-01-19T12:55:24.204Z,99938.03
2023-01-19T12:57:58.041Z,99940.22
2023-01-19T13:00:38.064Z,99935.31
2023-01-19T13:03:45.447Z,99954.66
2023-01-19T13:06:14.873Z,99961.53
2023-01-19T13:09:29.047Z,99968.78
2023-01-19T13:12:22.857Z,99963.03
2023-01-19T13:14:51.775Z,99973.13
2023-01-19T13:17:50.646Z,99975.31
2023-01-19T13:20:28.579Z,99973.41
2023-01-19T13:23:19.713Z,99972.56
2023-01-19T13:25:54.357Z,99973.25
2023-01-19T13:28:31.862Z,99969.56
2023-01-19T13:31:03.318Z,99976.78
2023-01-19T13:33:41.057Z,99971.41
2023-01-19T13:36:20.608Z,99987.94
2023-01-19T13:38:52.277Z,99986.41
2023-01-19T13:41:25.029Z,99991.81
2023-01-19T13:44:00.339Z,99992.66
2023-01-19T13:46:30.139Z,99999.41
2023-01-19T13:49:00.906Z,99998.91
2023-01-19T13:51:28.882Z,100004.63
2023-01-19T13:53:59.738Z,100004.63
2023-01-19T13:56:28.995Z,100004.25
2023-01-19T13:59:09.961Z,100002.41
2023-01-19T14:01:39.724Z,100013.69
2023-01-19T14:04:08.024Z,100002.66
2023-01-19T14:06:40.511Z,100013.78
2023-01-19T14:09:20.450Z,100010.72
2023-01-19T14:12:05.568Z,100000.84
2023-01-19T14:14:34.170Z,100022.25
2023-01-19T14:17:02.121Z,100030.53
2023-01-19T14:19:30.290Z,100017.28
2023-01-19T14:22:03.225Z,100026.41
2023-01-19T14:24:33.383Z,100026.22
2023-01-19T14:27:22.835Z,100029.41
2023-01-19T14:29:53.782Z,100036.16
2023-01-19T14:32:24.373Z,100045.53
2023-01-19T14:34:54.042Z,100049.56
2023-01-19T14:37:25.233Z,100052.09
2023-01-19T14:39:59.239Z,100058.03
2023-01-19T14:42:29.665Z,100064.28
2023-01-19T14:45:01.025Z,100059.38
2023-01-19T14:47:34.899Z,100063.97
2023-01-19T14:50:10.893Z,100063.97
2023-01-19T14:52:42.232Z,100071.06
2023-01-19T14:55:21.823Z,100067.59
2023-01-19T14:57:50.005Z,100078.91
2023-01-19T15:00:20.068Z,100079.28
2023-01-19T15:02:48.396Z,100090.19
2023-01-19T15:05:16.894Z,100079.94
2023-01-19T15:07:46.569Z,100082.47
2023-01-19T15:10:21.741Z,100090.56
2023-01-19T15:12:50.852Z,100076.66
2023-01-19T15:15:22.651Z,100092.84
2023-01-19T15:17:51.644Z,100093.00
2023-01-19T15:20:21.872Z,100096.56
2023-01-19T15:22:50.454Z,100099.88
2023-01-19T15:25:22.292Z,100095.97
2023-01-19T15:27:50.384Z,100103.53
2023-01-19T15:30:21.646Z,100103.00
2023-01-19T15:32:49.684Z,100098.94
2023-01-19T15:35:20.055Z,100102.31
2023-01-19T15:37:48.823Z,100102.00
2023-01-19T15:40:18.636Z,100101.16
2023-01-19T15:42:48.150Z,100092.22
2023-01-19T15:45:34.859Z,100097.78
2023-01-19T15:48:04.972Z,100076.84
2023-01-19T15:50:34.110Z,100079.06
2023-01-19T15:53:02.172Z,100081.25
2023-01-19T15:55:30.202Z,100091.38
2023-01-19T15:58:01.655Z,100088.66
2023-01-19T16:00:30.959Z,100088.84
2023-01-19T16:02:59.897Z,100085.59
2023-01-19T16:05:41.926Z,100095.75
2023-01-19T16:08:10.561Z,100102.00
2023-01-19T16:10:38.965Z,100100.13
2023-01-19T16:13:08.678Z,100103.38
2023-01-19T16:15:37.628Z,100097.13
2023-01-19T16:18:06.621Z,100104.75
2023-01-19T16:20:34.838Z,100100.53
2023-01-19T16:23:14.591Z,100113.66
2023-01-19T16:25:43.360Z,100118.25
2023-01-19T16:28:12.828Z,100124.47
2023-01-19T16:30:41.034Z,100122.47
2023-01-19T16:33:11.650Z,100126.72
2023-01-19T16:35:39.736Z,100132.59
2023-01-19T16:38:09.387Z,100132.97
2023-01-19T16:40:37.992Z,100130.50
2023-01-19T16:43:06.041Z,100131.03
2023-01-19T16:45:35.582Z,100135.41
2023-01-19T16:48:03.621Z,100138.13
2023-01-19T16:50:31.740Z,100136.59
2023-01-19T16:53:00.151Z,100134.75
2023-01-19T16:55:28.147Z,100144.69
2023-01-19T16:57:56.744Z,100150.38
2023-01-19T17:00:24.955Z,100151.22
2023-01-19T17:02:54.273Z,100150.25
2023-01-19T17:05:22.414Z,100148.38
2023-01-19T17:07:50.443Z,100150.06
2023-01-19T17:10:18.518Z,100147.06
2023-01-19T17:12:46.591Z,100154.00
2023-01-19T17:15:15.095Z,100153.00
2023-01-19T17:17:43.152Z,100151.34
2023-01-19T17:20:13.572Z,100151.25
2023-01-19T17:22:41.786Z,100161.94
2023-01-19T17:25:10.325Z,100157.59
2023-01-19T17:27:38.412Z,100164.03
2023-01-19T17:30:07.059Z,100151.94
2023-01-19T17:32:35.767Z,100162.13
2023-01-19T17:35:03.842Z,100162.16
2023-01-19T17:37:33.198Z,100169.66
2023-01-19T17:40:01.265Z,100169.31
2023-01-19T17:42:29.214Z,100172.22
2023-01-19T17:44:57.118Z,100178.66
2023-01-19T17:47:26.095Z,100175.78
2023-01-19T17:49:54.077Z,100184.56
2023-01-19T17:52:22.261Z,100189.78
2023-01-19T17:54:51.649Z,100194.03
2023-01-19T17:57:19.745Z,100194.88
2023-01-19T17:59:48.260Z,100200.13
2023-01-19T18:02:16.407Z,100203.84
2023-01-19T18:04:44.622Z,100201.97
2023-01-19T18:07:12.632Z,100207.22
2023-01-19T18:09:40.594Z,100206.00
2023-01-19T18:12:10.002Z,100207.19
2023-01-19T18:14:38.734Z,100201.78
2023-01-19T18:17:06.670Z,100216.78
2023-01-19T18:19:34.608Z,100214.56
2023-01-19T18:22:03.294Z,100223.69
2023-01-19T18:24:31.355Z,100215.97
2023-01-19T18:26:59.323Z,100219.84
2023-01-19T18:29:28.837Z,100217.66
2023-01-19T18:31:56.886Z,100223.94
2023-01-19T18:34:24.869Z,100224.06
2023-01-19T18:36:52.883Z,100222.03
2023-01-19T18:39:21.189Z,100221.16
2023-01-19T18:41:49.141Z,100224.69
2023-01-19T18:44:17.000Z,100231.53
2023-01-19T18:46:46.479Z,100229.31
2023-01-19T18:49:14.485Z,100235.56
2023-01-19T18:51:42.505Z,100243.50
2023-01-19T18:54:11.980Z,100243.91
2023-01-19T18:56:39.970Z,100249.97
2023-01-19T18:59:07.949Z,100247.72
2023-01-19T19:01:36.483Z,100249.22
2023-01-19T19:04:08.146Z,100258.66
2023-01-19T19:06:36.366Z,100265.59
2023-01-19T19:09:05.228Z,100261.56
2023-01-19T19:11:33.236Z,100260.88
2023-01-19T19:14:03.273Z,100261.56
2023-01-19T19:16:34.932Z,100274.00
2023-01-19T19:19:05.204Z,100269.16
2023-01-19T19:21:33.191Z,100268.81
2023-01-19T19:24:01.193Z,100264.94
2023-01-19T19:26:30.010Z,100268.34
2023-01-19T19:28:58.207Z,100269.06
2023-01-19T19:31:27.630Z,100245.84
2023-01-19T19:33:56.983Z,100272.59
2023-01-19T19:36:28.503Z,100275.13
2023-01-19T19:38:56.541Z,100274.28
2023-01-19T19:41:26.997Z,100272.28
2023-01-19T19:43:55.642Z,100277.69
2023-01-19T19:46:25.134Z,100279.38
2023-01-19T19:48:53.467Z,100281.06
2023-01-19T19:51:23.512Z,100286.47
2023-01-19T19:53:54.047Z,100281.94
2023-01-19T19:56:24.632Z,100283.28
2023-01-19T19:58:55.053Z,100289.53
2023-01-19T20:01:27.180Z,100292.91
2023-01-19T20:03:56.117Z,100244.47
2023-01-19T20:06:26.165Z,100295.47
2023-01-19T20:08:57.156Z,100298.19
2023-01-19T20:11:28.207Z,100299.00
2023-01-19T20:13:56.389Z,100297.31
2023-01-19T20:16:25.159Z,100277.53
2023-01-19T20:18:55.200Z,100304.75
2023-01-19T20:21:25.965Z,100303.75
2023-01-19T20:23:57.291Z,100308.00
2023-01-19T20:26:27.968Z,100312.75
2023-01-19T20:28:59.701Z,100314.28
2023-01-19T20:31:30.278Z,100308.22
2023-01-19T20:34:01.230Z,100310.75
2023-01-19T20:36:29.590Z,100318.31
2023-01-19T20:38:59.401Z,100325.25
2023-01-19T20:41:28.079Z,100323.56
2023-01-19T20:43:56.096Z,100328.97
2023-01-19T20:46:24.201Z,100330.16
2023-01-19T20:48:54.638Z,100320.97
2023-01-19T20:51:23.086Z,100334.84
2023-01-19T20:53:51.147Z,100326.91
2023-01-19T20:56:20.556Z,100335.69
2023-01-19T20:58:48.429Z,100338.25
2023-01-19T21:01:19.392Z,100334.34
2023-01-19T21:03:47.896Z,100348.88
2023-01-19T21:06:16.543Z,100346.03
2023-01-19T21:08:44.823Z,100330.81
2023-01-19T21:11:13.381Z,100326.56
2023-01-19T21:13:42.816Z,100330.78
2023-01-19T21:16:10.871Z,100350.06
2023-01-19T21:18:38.962Z,100356.13
2023-01-19T21:21:10.665Z,100352.75
2023-01-19T21:23:44.542Z,100351.75
2023-01-19T21:26:13.116Z,100349.88
2023-01-19T21:28:42.970Z,100358.47
2023-01-19T21:31:12.917Z,100360.88
2023-01-19T21:33:41.261Z,100363.38
2023-01-19T21:36:10.933Z,100346.34
2023-01-19T21:38:40.111Z,100322.81
2023-01-19T21:41:11.725Z,100356.00
2023-01-19T21:43:41.835Z,100360.88
2023-01-19T21:46:12.711Z,100366.25
2023-01-19T21:48:40.771Z,100373.00
2023-01-19T21:51:09.260Z,100378.56
2023-01-19T21:53:37.262Z,100370.56
2023-01-19T21:56:07.785Z,100381.25
2023-01-19T21:58:35.804Z,100387.16
2023-01-19T22:01:05.331Z,100390.53
2023-01-19T22:03:34.686Z,100385.97
2023-01-19T22:06:05.877Z,100388.69
2023-01-19T22:08:33.983Z,100388.84
2023-01-19T22:11:05.286Z,100388.31
2023-01-19T22:13:33.726Z,100394.03
2023-01-19T22:16:02.275Z,100401.09
2023-01-19T22:18:30.316Z,100404.69
2023-01-19T22:21:08.115Z,100408.41
2023-01-19T22:23:36.636Z,100406.00
2023-01-19T22:26:05.436Z,100401.72
2023-01-19T22:28:34.306Z,100407.59
2023-01-19T22:31:07.217Z,100413.44
2023-01-19T22:33:35.863Z,100405.72
2023-01-19T22:36:17.143Z,100414.50
2023-01-19T22:38:45.751Z,100414.13
2023-01-19T22:41:18.566Z,100417.00
2023-01-19T22:43:47.218Z,100423.56
2023-01-19T22:46:18.908Z,100400.81
2023-01-19T22:48:47.437Z,100397.25
2023-01-19T22:51:17.602Z,100418.28
2023-01-19T22:53:45.663Z,100416.06
2023-01-19T22:56:15.715Z,100427.41
2023-01-19T22:58:45.124Z,100433.78
2023-01-19T23:01:14.868Z,100428.41
2023-01-19T23:03:43.460Z,100425.63
2023-01-19T23:06:13.638Z,100434.66
2023-01-19T23:08:43.434Z,100435.03
2023-01-19T23:11:13.837Z,100431.47
2023-01-19T23:13:42.119Z,100437.09
2023-01-19T23:16:10.606Z,100437.72
2023-01-19T23:18:39.106Z,100437.50
2023-01-19T23:21:09.047Z,100440.66
2023-01-19T23:23:37.456Z,100442.13
2023-01-19T23:26:08.384Z,100438.56
2023-01-19T23:28:36.818Z,100439.06
2023-01-19T23:31:15.067Z,100442.44
2023-01-19T23:33:44.232Z,100437.66
2023-01-19T23:36:12.974Z,100447.91
2023-01-19T23:38:41.596Z,100449.94
2023-01-19T23:41:10.957Z,100448.06
2023-01-19T23:43:39.064Z,100459.88
2023-01-19T23:46:08.681Z,100452.47
2023-01-19T23:48:37.585Z,100456.63
2023-01-19T23:51:07.601Z,100458.22
2023-01-19T23:53:35.933Z,100458.19
2023-01-19T23:56:11.875Z,100462.66
2023-01-19T23:58:40.520Z,100468.13
